Schinnen, Netherlands
Current Conditions -  °F | °C
As of 6:55 PM on Thursday 18 Dec 2014 (Local Time) from EHBK Reporting Station
Overcast Overcast  
Wind Chill: 54°   Ceiling: 1600
Heat Index: 54°   Visibility: 6mi
Dew Point: 48°   Wind: 25mph
Humidity: 82%   Direction: 230°SW
Pressure: 29.91"   Gusts: NA
Location:  50.94°N, 5.89°E
Report Text: EHBK 181755Z AUTO 23022KT 9999 BKN016 OVC019 12/09 Q1013 TEMPO7000 -DZ BKN010
Loading
Personal Weather Stations






























Interactive Weather Map New forecast layout! Learn more

10-Day Weather Forecast

Advertisements
Track Severe Weather on mobile